CMA CGM Balzac — DIHN — position and weather

sailwx.info

Track history (hours):
 
Tides and Currents Weather Stations Pressure Air Temp Water Temp Dewpoint Dewpoint Depression Visibility Wind Speed Wind Dir Waves Ship Positions

CMA CGM Balzac

Last reported at 2016-Sep-16 15:32 UTC. Time now 2016-Sep-27 20:37 UTC.
Position N 01°57' E 102°18'.
Warning: this ship's position is 11 days out of date.

Length 300.3 m; beam 40.3 m; draft 14 m.

Type: Ship. MMSI: 211378810.

Date/timePositionNaut miles runAvg speedWind from/ knotsBaromVisibWave heightAir tempDewpointWater temp
2016-Sep-16 15:32N 01°57' E 102°18'9612.0
2016-Sep-16 07:34N 01°17' E 103°46'0 0.0
2016-Sep-16 03:34N 01°17' E 103°46'0 0.1
2016-Sep-16 02:33N 01°17' E 103°46'0 0.0
2016-Sep-16 00:33N 01°17' E 103°46'0 0.0
2016-Sep-15 22:34N 01°17' E 103°46'0 0.0
2016-Sep-15 21:34N 01°17' E 103°46'0 0.0
2016-Sep-15 20:34N 01°17' E 103°46'1 0.5
2016-Sep-15 18:33N 01°17' E 103°45'  
2016-Sep-10 14:34N 22°19' E 120°02'1514.9
2016-Sep-10 13:33N 22°31' E 120°11'8 7.8
2016-Sep-10 12:33N 22°33' E 120°20'0 0.1
2016-Sep-10 11:33N 22°33' E 120°20'0 0.0
2016-Sep-10 10:33N 22°33' E 120°20'0 0.0
2016-Sep-10 09:33N 22°33' E 120°20'0 0.0
2016-Sep-10 08:33N 22°33' E 120°20'0 0.1
2016-Sep-10 07:33N 22°33' E 120°20'5 5.2
2016-Sep-10 06:33N 22°32' E 120°14'9 8.9
2016-Sep-10 05:32N 22°39' E 120°08'1111.2
2016-Sep-10 04:33N 22°49' E 120°02'  
Track history (hours):
 
Tides and Currents Weather Stations Pressure Air Temp Water Temp Dewpoint Dewpoint Depression Visibility Wind Speed Wind Dir Waves Ship Positions

CMA CGM Balzac

Last reported at 2016-Sep-16 15:32 UTC. Time now 2016-Sep-27 20:37 UTC.
Position N 01°57' E 102°18'.
Warning: this ship's position is 11 days out of date.

Length 300.3 m; beam 40.3 m; draft 14 m.

Type: Ship. MMSI: 211378810.

Date/timePositionNaut miles runAvg speedWind from/ knotsBaromVisibWave heightAir tempDewpointWater temp
2016-Sep-16 15:32N 01°57' E 102°18'9612.0
2016-Sep-16 07:34N 01°17' E 103°46'0 0.0
2016-Sep-16 03:34N 01°17' E 103°46'0 0.1
2016-Sep-16 02:33N 01°17' E 103°46'0 0.0
2016-Sep-16 00:33N 01°17' E 103°46'0 0.0
2016-Sep-15 22:34N 01°17' E 103°46'0 0.0
2016-Sep-15 21:34N 01°17' E 103°46'0 0.0
2016-Sep-15 20:34N 01°17' E 103°46'1 0.5
2016-Sep-15 18:33N 01°17' E 103°45'  
2016-Sep-10 14:34N 22°19' E 120°02'1514.9
2016-Sep-10 13:33N 22°31' E 120°11'8 7.8
2016-Sep-10 12:33N 22°33' E 120°20'0 0.1
2016-Sep-10 11:33N 22°33' E 120°20'0 0.0
2016-Sep-10 10:33N 22°33' E 120°20'0 0.0
2016-Sep-10 09:33N 22°33' E 120°20'0 0.0
2016-Sep-10 08:33N 22°33' E 120°20'0 0.1
2016-Sep-10 07:33N 22°33' E 120°20'5 5.2
2016-Sep-10 06:33N 22°32' E 120°14'9 8.9
2016-Sep-10 05:32N 22°39' E 120°08'1111.2
2016-Sep-10 04:33N 22°49' E 120°02'  

Dump ship's entire track history